Time,TemperatureF,DewpointF,PressureIn,WindDirection,WindDirectionDegrees,WindSpeedMPH,WindSpeedGustMPH,Humidity,HourlyPrecipIn,Conditions,Clouds,dailyrainin,SolarRadiationWatts/m^2,SoftwareType,DateUTC
2013-01-27 00:01:00,37.0,19.0,-100.00,ENE,66,1.0,4.0,48,0.00,,,0.00,1.000000,,2013-01-27 07:01:00,
2013-01-27 00:14:00,37.0,19.0,-100.00,ENE,66,1.0,4.0,48,0.00,,,0.00,1.000000,,2013-01-27 07:14:00,
2013-01-27 00:21:00,37.0,19.0,-100.00,ENE,66,1.0,4.0,48,0.00,,,0.00,1.000000,,2013-01-27 07:21:00,
2013-01-27 00:42:00,35.0,20.0,-100.00,NNW,346,1.0,2.0,53,0.00,,,0.00,1.000000,,2013-01-27 07:42:00,
2013-01-27 00:52:00,35.0,20.0,-100.00,NNW,346,1.0,2.0,53,0.00,,,0.00,1.000000,,2013-01-27 07:52:00,
2013-01-27 01:01:00,35.0,20.0,-100.00,NNW,346,1.0,2.0,53,0.00,,,0.00,1.000000,,2013-01-27 08:01:00,
2013-01-27 01:11:00,35.0,20.0,-100.00,NNW,346,1.0,2.0,53,0.00,,,0.00,1.000000,,2013-01-27 08:11:00,
2013-01-27 01:22:00,35.0,20.0,-100.00,NNW,346,1.0,2.0,53,0.00,,,0.00,1.000000,,2013-01-27 08:22:00,
2013-01-27 01:42:00,35.0,19.0,-100.00,NNW,332,2.0,3.0,51,0.00,,,0.00,1.000000,,2013-01-27 08:42:00,
2013-01-27 01:52:00,35.0,19.0,-100.00,NNW,332,2.0,3.0,51,0.00,,,0.00,1.000000,,2013-01-27 08:52:00,
2013-01-27 02:02:00,35.0,19.0,-100.00,NNW,332,2.0,3.0,51,0.00,,,0.00,1.000000,,2013-01-27 09:02:00,
2013-01-27 02:11:00,35.0,19.0,-100.00,NNW,332,2.0,3.0,51,0.00,,,0.00,1.000000,,2013-01-27 09:11:00,
2013-01-27 02:21:00,35.0,19.0,-100.00,NNW,332,2.0,3.0,51,0.00,,,0.00,1.000000,,2013-01-27 09:21:00,
2013-01-27 02:42:00,36.0,20.0,-100.00,NNW,339,2.0,3.0,51,0.00,,,0.00,1.000000,,2013-01-27 09:42:00,
2013-01-27 02:52:00,36.0,20.0,-100.00,NNW,339,2.0,3.0,51,0.00,,,0.00,1.000000,,2013-01-27 09:52:00,
2013-01-27 03:01:00,36.0,20.0,-100.00,NNW,339,2.0,3.0,51,0.00,,,0.00,1.000000,,2013-01-27 10:01:00,
2013-01-27 03:11:00,36.0,20.0,-100.00,NNW,339,2.0,3.0,51,0.00,,,0.00,1.000000,,2013-01-27 10:11:00,
2013-01-27 03:21:00,36.0,20.0,-100.00,NNW,339,2.0,3.0,51,0.00,,,0.00,1.000000,,2013-01-27 10:21:00,
2013-01-27 03:42:00,37.0,21.0,-100.00,NNE,15,1.0,3.0,53,0.00,,,0.00,1.000000,,2013-01-27 10:42:00,
2013-01-27 03:52:00,37.0,21.0,-100.00,NNE,15,1.0,3.0,53,0.00,,,0.00,1.000000,,2013-01-27 10:52:00,
2013-01-27 04:01:00,37.0,21.0,-100.00,NNE,15,1.0,3.0,53,0.00,,,0.00,1.000000,,2013-01-27 11:01:00,
2013-01-27 04:11:00,37.0,21.0,-100.00,NNE,15,1.0,3.0,53,0.00,,,0.00,1.000000,,2013-01-27 11:11:00,
2013-01-27 04:21:00,37.0,21.0,-100.00,NNE,15,1.0,3.0,53,0.00,,,0.00,1.000000,,2013-01-27 11:21:00,
2013-01-27 04:42:00,37.0,22.0,-100.00,North,351,0.0,3.0,55,0.00,,,0.00,1.000000,,2013-01-27 11:42:00,
2013-01-27 04:52:00,37.0,22.0,-100.00,North,351,0.0,3.0,55,0.00,,,0.00,1.000000,,2013-01-27 11:52:00,
2013-01-27 05:02:00,37.0,22.0,-100.00,North,351,0.0,3.0,55,0.00,,,0.00,1.000000,,2013-01-27 12:02:00,
2013-01-27 05:11:00,37.0,22.0,-100.00,North,351,0.0,3.0,55,0.00,,,0.00,1.000000,,2013-01-27 12:11:00,
2013-01-27 05:21:00,37.0,22.0,-100.00,North,351,0.0,3.0,55,0.00,,,0.00,1.000000,,2013-01-27 12:21:00,
2013-01-27 05:42:00,38.0,24.0,-100.00,North,3,0.0,2.0,57,0.00,,,0.00,1.000000,,2013-01-27 12:42:00,
2013-01-27 05:52:00,38.0,24.0,-100.00,North,3,0.0,2.0,57,0.00,,,0.00,1.000000,,2013-01-27 12:52:00,
2013-01-27 06:02:00,38.0,24.0,-100.00,North,3,0.0,2.0,57,0.00,,,0.00,1.000000,,2013-01-27 13:02:00,
2013-01-27 06:11:00,38.0,24.0,-100.00,North,3,0.0,2.0,57,0.00,,,0.00,1.000000,,2013-01-27 13:11:00,
2013-01-27 06:22:00,38.0,24.0,-100.00,North,3,0.0,2.0,57,0.00,,,0.00,1.000000,,2013-01-27 13:22:00,
2013-01-27 06:42:00,39.0,22.0,-100.00,North,349,1.0,2.0,50,0.00,,,0.00,1.000000,,2013-01-27 13:42:00,
2013-01-27 06:52:00,39.0,22.0,-100.00,North,349,1.0,2.0,50,0.00,,,0.00,1.000000,,2013-01-27 13:52:00,
2013-01-27 07:02:00,39.0,22.0,-100.00,North,349,1.0,2.0,50,0.00,,,0.00,1.000000,,2013-01-27 14:02:00,
2013-01-27 07:11:00,39.0,22.0,-100.00,North,349,1.0,2.0,50,0.00,,,0.00,1.000000,,2013-01-27 14:11:00,
2013-01-27 07:22:00,39.0,22.0,-100.00,North,349,1.0,2.0,50,0.00,,,0.00,1.000000,,2013-01-27 14:22:00,
2013-01-27 08:12:00,38.0,24.0,-100.00,NW,313,2.0,4.0,56,0.00,,,0.00,1.000000,,2013-01-27 15:12:00,
2013-01-27 08:22:00,38.0,24.0,-100.00,NW,313,2.0,4.0,56,0.00,,,0.00,1.000000,,2013-01-27 15:22:00,
2013-01-27 08:42:00,37.0,26.0,-100.00,WNW,288,2.0,4.0,63,0.00,,,0.00,18.000000,,2013-01-27 15:42:00,
2013-01-27 08:53:00,37.0,26.0,-100.00,WNW,288,2.0,4.0,63,0.00,,,0.00,18.000000,,2013-01-27 15:53:00,
2013-01-27 09:02:00,37.0,26.0,-100.00,WNW,288,2.0,4.0,63,0.00,,,0.00,18.000000,,2013-01-27 16:02:00,
2013-01-27 09:12:00,37.0,26.0,-100.00,WNW,288,2.0,4.0,63,0.00,,,0.00,18.000000,,2013-01-27 16:12:00,
2013-01-27 09:21:00,37.0,26.0,-100.00,WNW,288,2.0,4.0,63,0.00,,,0.00,18.000000,,2013-01-27 16:21:00,
2013-01-27 09:42:00,39.0,26.0,-100.00,West,281,1.0,3.0,59,0.00,,,0.00,86.000000,,2013-01-27 16:42:00,
2013-01-27 09:53:00,39.0,26.0,-100.00,West,281,1.0,3.0,59,0.00,,,0.00,86.000000,,2013-01-27 16:53:00,
2013-01-27 10:02:00,39.0,26.0,-100.00,West,281,1.0,3.0,59,0.00,,,0.00,86.000000,,2013-01-27 17:02:00,
2013-01-27 10:12:00,39.0,26.0,-100.00,West,281,1.0,3.0,59,0.00,,,0.00,86.000000,,2013-01-27 17:12:00,
2013-01-27 10:22:00,39.0,26.0,-100.00,West,281,1.0,3.0,59,0.00,,,0.00,86.000000,,2013-01-27 17:22:00,
2013-01-27 10:42:00,43.0,28.0,-100.00,WSW,246,3.0,7.0,55,0.00,,,0.00,179.000000,,2013-01-27 17:42:00,
2013-01-27 10:53:00,43.0,28.0,-100.00,WSW,246,3.0,7.0,55,0.00,,,0.00,179.000000,,2013-01-27 17:53:00,
2013-01-27 11:02:00,43.0,28.0,-100.00,WSW,246,3.0,7.0,55,0.00,,,0.00,179.000000,,2013-01-27 18:02:00,
2013-01-27 11:11:00,43.0,28.0,-100.00,WSW,246,3.0,7.0,55,0.00,,,0.00,179.000000,,2013-01-27 18:11:00,
2013-01-27 11:22:00,43.0,28.0,-100.00,WSW,246,3.0,7.0,55,0.00,,,0.00,179.000000,,2013-01-27 18:22:00,
2013-01-27 11:42:00,47.0,29.0,-100.00,WSW,250,3.0,10.0,50,0.00,,,0.00,319.000000,,2013-01-27 18:42:00,
2013-01-27 11:52:00,47.0,29.0,-100.00,WSW,250,3.0,10.0,50,0.00,,,0.00,319.000000,,2013-01-27 18:52:00,
2013-01-27 12:02:00,47.0,29.0,-100.00,WSW,250,3.0,10.0,50,0.00,,,0.00,319.000000,,2013-01-27 19:02:00,
2013-01-27 12:11:00,47.0,29.0,-100.00,WSW,250,3.0,10.0,50,0.00,,,0.00,319.000000,,2013-01-27 19:11:00,
2013-01-27 12:22:00,47.0,29.0,-100.00,WSW,250,3.0,10.0,50,0.00,,,0.00,319.000000,,2013-01-27 19:22:00,
2013-01-27 12:42:00,49.0,29.0,-100.00,SW,230,5.0,13.0,46,0.00,,,0.00,470.000000,,2013-01-27 19:42:00,
2013-01-27 12:52:00,49.0,29.0,-100.00,SW,230,5.0,13.0,46,0.00,,,0.00,470.000000,,2013-01-27 19:52:00,
2013-01-27 13:02:00,49.0,29.0,-100.00,SW,230,5.0,13.0,46,0.00,,,0.00,470.000000,,2013-01-27 20:02:00,
2013-01-27 13:11:00,49.0,29.0,-100.00,SW,230,5.0,13.0,46,0.00,,,0.00,470.000000,,2013-01-27 20:11:00,
2013-01-27 13:22:00,49.0,29.0,-100.00,SW,230,5.0,13.0,46,0.00,,,0.00,470.000000,,2013-01-27 20:22:00,
2013-01-27 13:42:00,47.0,26.0,-100.00,SW,224,6.0,14.0,44,0.00,,,0.00,489.000000,,2013-01-27 20:42:00,
2013-01-27 13:52:00,47.0,26.0,-100.00,SW,224,6.0,14.0,44,0.00,,,0.00,489.000000,,2013-01-27 20:52:00,
2013-01-27 14:02:00,47.0,26.0,-100.00,SW,224,6.0,14.0,44,0.00,,,0.00,489.000000,,2013-01-27 21:02:00,
2013-01-27 14:12:00,47.0,26.0,-100.00,SW,224,6.0,14.0,44,0.00,,,0.00,489.000000,,2013-01-27 21:12:00,
2013-01-27 14:22:00,47.0,26.0,-100.00,SW,224,6.0,14.0,44,0.00,,,0.00,489.000000,,2013-01-27 21:22:00,
2013-01-27 14:43:00,48.0,27.0,-100.00,WSW,241,4.0,9.0,44,0.00,,,0.00,439.000000,,2013-01-27 21:43:00,
2013-01-27 14:52:00,48.0,27.0,-100.00,WSW,241,4.0,9.0,44,0.00,,,0.00,439.000000,,2013-01-27 21:52:00,
2013-01-27 15:02:00,48.0,27.0,-100.00,WSW,241,4.0,9.0,44,0.00,,,0.00,439.000000,,2013-01-27 22:02:00,
2013-01-27 15:11:00,48.0,27.0,-100.00,WSW,241,4.0,9.0,44,0.00,,,0.00,439.000000,,2013-01-27 22:11:00,
2013-01-27 15:22:00,48.0,27.0,-100.00,WSW,241,4.0,9.0,44,0.00,,,0.00,439.000000,,2013-01-27 22:22:00,
2013-01-27 15:42:00,48.0,27.0,-100.00,SSW,209,2.0,7.0,44,0.00,,,0.00,324.000000,,2013-01-27 22:42:00,
2013-01-27 15:52:00,48.0,27.0,-100.00,SSW,209,2.0,7.0,44,0.00,,,0.00,324.000000,,2013-01-27 22:52:00,
2013-01-27 16:02:00,48.0,27.0,-100.00,SSW,209,2.0,7.0,44,0.00,,,0.00,324.000000,,2013-01-27 23:02:00,
2013-01-27 16:12:00,48.0,27.0,-100.00,SSW,209,2.0,7.0,44,0.00,,,0.00,324.000000,,2013-01-27 23:12:00,
2013-01-27 16:21:00,48.0,27.0,-100.00,SSW,209,2.0,7.0,44,0.00,,,0.00,324.000000,,2013-01-27 23:21:00,
2013-01-27 16:42:00,40.0,28.0,-100.00,SW,227,3.0,7.0,61,0.00,,,0.00,149.000000,,2013-01-27 23:42:00,
2013-01-27 16:53:00,40.0,28.0,-100.00,SW,227,3.0,7.0,61,0.00,,,0.00,149.000000,,2013-01-27 23:53:00,
2013-01-27 17:02:00,40.0,28.0,-100.00,SW,227,3.0,7.0,61,0.00,,,0.00,149.000000,,2013-01-28 00:02:00,
2013-01-27 17:11:00,40.0,28.0,-100.00,SW,227,3.0,7.0,61,0.00,,,0.00,149.000000,,2013-01-28 00:11:00,
2013-01-27 17:21:00,40.0,28.0,-100.00,SW,227,3.0,7.0,61,0.00,,,0.00,149.000000,,2013-01-28 00:21:00,
2013-01-27 17:42:00,35.0,27.0,-100.00,NW,322,2.0,5.0,72,0.00,,,0.00,8.000000,,2013-01-28 00:42:00,
2013-01-27 17:52:00,35.0,27.0,-100.00,NW,322,2.0,5.0,72,0.00,,,0.00,8.000000,,2013-01-28 00:52:00,
2013-01-27 18:02:00,35.0,27.0,-100.00,NW,322,2.0,5.0,72,0.00,,,0.00,8.000000,,2013-01-28 01:02:00,
2013-01-27 18:11:00,35.0,27.0,-100.00,NW,322,2.0,5.0,72,0.00,,,0.00,8.000000,,2013-01-28 01:11:00,
2013-01-27 18:22:00,35.0,27.0,-100.00,NW,322,2.0,5.0,72,0.00,,,0.00,8.000000,,2013-01-28 01:22:00,
2013-01-27 18:42:00,33.0,26.0,-100.00,West,269,1.0,4.0,76,0.00,,,0.00,1.000000,,2013-01-28 01:42:00,
2013-01-27 18:52:00,33.0,26.0,-100.00,West,269,1.0,4.0,76,0.00,,,0.00,1.000000,,2013-01-28 01:52:00,
2013-01-27 19:02:00,33.0,26.0,-100.00,West,269,1.0,4.0,76,0.00,,,0.00,1.000000,,2013-01-28 02:02:00,
2013-01-27 19:11:00,33.0,26.0,-100.00,West,269,1.0,4.0,76,0.00,,,0.00,1.000000,,2013-01-28 02:11:00,
2013-01-27 19:22:00,33.0,26.0,-100.00,West,269,1.0,4.0,76,0.00,,,0.00,1.000000,,2013-01-28 02:22:00,
2013-01-27 19:42:00,33.0,26.0,-100.00,ESE,115,3.0,4.0,74,0.00,,,0.00,1.000000,,2013-01-28 02:42:00,
2013-01-27 19:52:00,33.0,26.0,-100.00,ESE,115,3.0,4.0,74,0.00,,,0.00,1.000000,,2013-01-28 02:52:00,
2013-01-27 20:02:00,33.0,26.0,-100.00,ESE,115,3.0,4.0,74,0.00,,,0.00,1.000000,,2013-01-28 03:02:00,
2013-01-27 20:12:00,33.0,26.0,-100.00,ESE,115,3.0,4.0,74,0.00,,,0.00,1.000000,,2013-01-28 03:12:00,
2013-01-27 20:21:00,33.0,26.0,-100.00,ESE,115,3.0,4.0,74,0.00,,,0.00,1.000000,,2013-01-28 03:21:00,
2013-01-27 20:42:00,30.0,26.0,-100.00,NE,34,1.0,4.0,84,0.00,,,-99.99,1.000000,,2013-01-28 03:42:00,
2013-01-27 20:53:00,30.0,26.0,-100.00,NE,34,1.0,4.0,84,0.00,,,-99.99,1.000000,,2013-01-28 03:53:00,
2013-01-27 21:02:00,30.0,26.0,-100.00,NE,34,1.0,4.0,84,0.00,,,-99.99,1.000000,,2013-01-28 04:02:00,
2013-01-27 21:11:00,30.0,26.0,-100.00,NE,34,1.0,4.0,84,0.00,,,-99.99,1.000000,,2013-01-28 04:11:00,
2013-01-27 21:21:00,30.0,26.0,-100.00,NE,34,1.0,4.0,84,0.00,,,-99.99,1.000000,,2013-01-28 04:21:00,
2013-01-27 21:42:00,29.0,26.0,-100.00,SSE,157,2.0,5.0,89,0.00,,,0.00,1.000000,,2013-01-28 04:42:00,
2013-01-27 21:52:00,29.0,26.0,-100.00,SSE,157,2.0,5.0,89,0.00,,,0.00,1.000000,,2013-01-28 04:52:00,
2013-01-27 22:04:00,29.0,26.0,-100.00,SSE,157,2.0,5.0,89,0.00,,,0.00,1.000000,,2013-01-28 05:04:00,
2013-01-27 22:11:00,29.0,26.0,-100.00,SSE,157,2.0,5.0,89,0.00,,,0.00,1.000000,,2013-01-28 05:11:00,
2013-01-27 22:21:00,29.0,26.0,-100.00,SSE,157,2.0,5.0,89,0.00,,,0.00,1.000000,,2013-01-28 05:21:00,
2013-01-27 22:42:00,27.0,26.0,-100.00,WNW,298,2.0,5.0,94,0.00,,,0.00,1.000000,,2013-01-28 05:42:00,
2013-01-27 22:52:00,27.0,26.0,-100.00,WNW,298,2.0,5.0,94,0.00,,,0.00,1.000000,,2013-01-28 05:52:00,
2013-01-27 23:02:00,27.0,26.0,-100.00,WNW,298,2.0,5.0,94,0.00,,,0.00,1.000000,,2013-01-28 06:02:00,
2013-01-27 23:11:00,27.0,26.0,-100.00,WNW,298,2.0,5.0,94,0.00,,,0.00,1.000000,,2013-01-28 06:11:00,
2013-01-27 23:21:00,27.0,26.0,-100.00,WNW,298,2.0,5.0,94,0.00,,,0.00,1.000000,,2013-01-28 06:21:00,
2013-01-27 23:42:00,27.0,26.0,-100.00,NW,324,2.0,4.0,95,0.00,,,0.00,1.000000,,2013-01-28 06:42:00,
2013-01-27 23:52:00,27.0,26.0,-100.00,NW,324,2.0,4.0,95,0.00,,,0.00,1.000000,,2013-01-28 06:52:00,